createdAt,value
2022-11-18T00:01:10.272Z,65.86
2022-11-18T00:03:38.257Z,66.20
2022-11-18T00:06:06.848Z,66.12
2022-11-18T00:08:34.826Z,65.88
2022-11-18T00:11:06.796Z,65.91
2022-11-18T00:13:52.234Z,65.96
2022-11-18T00:16:21.221Z,66.13
2022-11-18T00:18:48.913Z,66.05
2022-11-18T00:21:16.593Z,65.81
2022-11-18T00:23:44.381Z,65.98
2022-11-18T00:26:13.730Z,66.00
2022-11-18T00:28:41.515Z,65.79
2022-11-18T00:31:10.687Z,65.47
2022-11-18T00:33:40.303Z,65.46
2022-11-18T00:36:09.697Z,65.60
2022-11-18T00:38:41.343Z,65.59
2022-11-18T00:41:10.580Z,66.02
2022-11-18T00:43:37.258Z,65.92
2022-11-18T00:46:05.921Z,66.00
2022-11-18T00:48:33.539Z,66.00
2022-11-18T00:51:10.440Z,65.93
2022-11-18T00:53:38.167Z,66.18
2022-11-18T00:56:06.225Z,66.14
2022-11-18T00:58:34.528Z,66.26
2022-11-18T01:01:02.576Z,66.00
2022-11-18T01:03:30.897Z,66.17
2022-11-18T01:05:58.565Z,65.98
2022-11-18T01:08:27.561Z,65.70
2022-11-18T01:10:55.198Z,66.00
2022-11-18T01:13:23.786Z,65.88
2022-11-18T01:15:53.365Z,66.37
2022-11-18T01:18:23.432Z,66.24
2022-11-18T01:20:51.141Z,65.63
2022-11-18T01:23:20.259Z,66.12
2022-11-18T01:25:50.537Z,65.36
2022-11-18T01:28:23.525Z,65.79
2022-11-18T01:30:51.982Z,65.40
2022-11-18T01:33:19.629Z,65.46
2022-11-18T01:35:47.274Z,65.72
2022-11-18T01:38:15.807Z,65.70
2022-11-18T01:40:43.417Z,65.67
2022-11-18T01:43:15.659Z,65.75
2022-11-18T01:45:44.671Z,65.51
2022-11-18T01:48:17.199Z,65.35
2022-11-18T01:50:47.745Z,65.58
2022-11-18T01:53:19.162Z,65.53
2022-11-18T01:55:49.502Z,65.65
2022-11-18T01:58:24.017Z,65.48
2022-11-18T02:00:51.765Z,65.65
2022-11-18T02:03:20.119Z,65.06
2022-11-18T02:05:49.283Z,64.97
2022-11-18T02:08:19.048Z,64.65
2022-11-18T02:10:46.656Z,64.56
2022-11-18T02:13:14.444Z,64.97
2022-11-18T02:15:50.599Z,64.37
2022-11-18T02:18:27.211Z,64.55
2022-11-18T02:20:57.422Z,64.55
2022-11-18T02:23:43.163Z,64.40
2022-11-18T02:26:32.437Z,63.93
2022-11-18T02:29:05.114Z,63.88
2022-11-18T02:31:34.782Z,64.02
2022-11-18T02:34:05.809Z,63.90
2022-11-18T02:36:40.707Z,64.05
2022-11-18T02:39:11.350Z,63.93
2022-11-18T02:41:40.792Z,63.61
2022-11-18T02:44:13.229Z,64.13
2022-11-18T02:46:40.803Z,63.82
2022-11-18T02:49:11.201Z,63.58
2022-11-18T02:51:39.497Z,63.61
2022-11-18T02:54:08.857Z,63.64
2022-11-18T02:56:37.024Z,63.54
2022-11-18T02:59:05.636Z,63.40
2022-11-18T03:01:35.965Z,62.92
2022-11-18T03:04:04.222Z,62.79
2022-11-18T03:06:34.534Z,62.65
2022-11-18T03:09:10.309Z,62.77
2022-11-18T03:11:44.232Z,63.21
2022-11-18T03:14:21.090Z,62.86
2022-11-18T03:16:57.481Z,62.51
2022-11-18T03:19:33.567Z,62.49
2022-11-18T03:22:08.567Z,61.94
2022-11-18T03:24:38.682Z,61.61
2022-11-18T03:27:12.106Z,61.30
2022-11-18T03:29:43.523Z,61.82
2022-11-18T03:32:16.376Z,61.90
2022-11-18T03:34:46.904Z,61.38
2022-11-18T03:37:16.054Z,61.79
2022-11-18T03:39:46.667Z,61.29
2022-11-18T03:42:18.045Z,61.28
2022-11-18T03:44:52.601Z,61.12
2022-11-18T03:47:25.595Z,61.44
2022-11-18T03:49:55.127Z,61.02
2022-11-18T03:52:25.684Z,61.18
2022-11-18T03:54:56.245Z,61.10
2022-11-18T03:57:26.706Z,60.95
2022-11-18T03:59:58.044Z,60.93
2022-11-18T04:02:27.888Z,61.11
2022-11-18T04:04:57.211Z,60.92
2022-11-18T04:07:27.675Z,60.67
2022-11-18T04:09:57.911Z,61.07
2022-11-18T04:12:30.851Z,60.76
2022-11-18T04:14:58.459Z,60.53
2022-11-18T04:17:29.648Z,60.57
2022-11-18T04:19:57.295Z,60.21
2022-11-18T04:22:25.022Z,60.52
2022-11-18T04:24:52.637Z,59.73
2022-11-18T04:27:22.160Z,59.83
2022-11-18T04:29:49.775Z,59.97
2022-11-18T04:32:17.374Z,59.91
2022-11-18T04:34:46.377Z,59.63
2022-11-18T04:37:13.994Z,59.60
2022-11-18T04:39:41.689Z,59.22
2022-11-18T04:42:09.278Z,59.39
2022-11-18T04:44:36.910Z,59.09
2022-11-18T04:47:06.384Z,59.39
2022-11-18T04:49:34.513Z,59.36
2022-11-18T04:52:03.768Z,59.42
2022-11-18T04:54:31.503Z,59.32
2022-11-18T04:56:59.301Z,59.01
2022-11-18T04:59:28.342Z,58.80
2022-11-18T05:01:56.517Z,59.16
2022-11-18T05:04:25.893Z,59.23
2022-11-18T05:06:53.683Z,58.96
2022-11-18T05:09:26.067Z,59.07
2022-11-18T05:12:15.415Z,58.87
2022-11-18T05:14:48.185Z,58.57
2022-11-18T05:17:17.577Z,58.40
2022-11-18T05:19:45.220Z,58.47
2022-11-18T05:22:12.865Z,58.54
2022-11-18T05:24:41.882Z,58.12
2022-11-18T05:27:09.518Z,57.97
2022-11-18T05:29:37.433Z,58.15
2022-11-18T05:32:05.536Z,57.87
2022-11-18T05:34:33.257Z,58.06
2022-11-18T05:37:00.920Z,58.40
2022-11-18T05:39:28.525Z,57.95
2022-11-18T05:42:15.115Z,58.25
2022-11-18T05:44:43.750Z,58.29
2022-11-18T05:47:11.880Z,58.57
2022-11-18T05:49:39.622Z,58.33
2022-11-18T05:52:07.262Z,58.40
2022-11-18T05:54:35.019Z,58.71
2022-11-18T05:57:04.115Z,58.59
2022-11-18T05:59:31.858Z,58.64
2022-11-18T06:02:03.152Z,58.80
2022-11-18T06:04:33.681Z,58.94
2022-11-18T06:07:05.685Z,59.15
2022-11-18T06:09:36.535Z,59.00
2022-11-18T06:12:06.759Z,59.25
2022-11-18T06:14:37.520Z,58.96
2022-11-18T06:17:07.394Z,59.32
2022-11-18T06:19:35.207Z,59.27
2022-11-18T06:22:03.210Z,59.29
2022-11-18T06:24:30.896Z,59.16
2022-11-18T06:26:59.669Z,59.39
2022-11-18T06:29:29.280Z,59.51
2022-11-18T06:31:57.919Z,59.58
2022-11-18T06:34:25.584Z,59.49
2022-11-18T06:36:53.249Z,58.88
2022-11-18T06:39:21.084Z,59.11
2022-11-18T06:41:48.856Z,59.06
2022-11-18T06:44:15.484Z,59.27
2022-11-18T06:46:59.689Z,59.25
2022-11-18T06:49:28.151Z,59.36
2022-11-18T06:51:56.036Z,58.94
2022-11-18T06:54:23.718Z,58.56
2022-11-18T06:56:51.407Z,58.77
2022-11-18T06:59:23.495Z,58.91
2022-11-18T07:01:53.322Z,58.90
2022-11-18T07:04:21.569Z,59.08
2022-11-18T07:06:49.246Z,58.50
2022-11-18T07:09:17.457Z,58.82
2022-11-18T07:11:45.338Z,58.83
2022-11-18T07:14:14.000Z,58.64
2022-11-18T07:16:41.596Z,58.80
2022-11-18T07:19:11.949Z,58.50
2022-11-18T07:21:39.964Z,58.87
2022-11-18T07:24:08.982Z,58.86
2022-11-18T07:26:37.111Z,58.96
2022-11-18T07:29:05.135Z,58.99
2022-11-18T07:31:33.861Z,58.92
2022-11-18T07:34:01.596Z,58.93
2022-11-18T07:36:35.649Z,59.01
2022-11-18T07:39:05.301Z,59.03
2022-11-18T07:41:33.159Z,58.97
2022-11-18T07:44:02.121Z,58.97
2022-11-18T07:46:31.241Z,59.23
2022-11-18T07:49:00.532Z,59.01
2022-11-18T07:51:31.805Z,58.94
2022-11-18T07:53:59.493Z,59.51
2022-11-18T07:56:27.162Z,59.42
2022-11-18T07:58:55.262Z,59.36
2022-11-18T08:01:24.280Z,59.59
2022-11-18T08:03:52.232Z,59.48
2022-11-18T08:06:20.621Z,59.72
2022-11-18T08:08:49.909Z,59.85
2022-11-18T08:11:22.354Z,60.20
2022-11-18T08:13:50.939Z,60.48
2022-11-18T08:16:21.051Z,60.73
2022-11-18T08:18:49.171Z,61.11
2022-11-18T08:21:18.256Z,60.81
2022-11-18T08:23:50.446Z,61.04
2022-11-18T08:26:18.196Z,60.80
2022-11-18T08:28:46.653Z,61.04
2022-11-18T08:31:15.950Z,61.23
2022-11-18T08:33:43.676Z,60.97
2022-11-18T08:36:13.707Z,61.22
2022-11-18T08:38:41.368Z,61.09
2022-11-18T08:41:12.367Z,61.22
2022-11-18T08:43:40.068Z,61.47
2022-11-18T08:46:07.690Z,61.72
2022-11-18T08:48:35.350Z,61.85
2022-11-18T08:51:03.731Z,61.97
2022-11-18T08:53:31.957Z,62.15
2022-11-18T08:56:00.656Z,62.03
2022-11-18T08:58:29.864Z,62.29
2022-11-18T09:00:58.032Z,62.09
2022-11-18T09:03:27.447Z,62.20
2022-11-18T09:05:55.066Z,62.45
2022-11-18T09:08:29.776Z,62.75
2022-11-18T09:10:57.386Z,62.22
2022-11-18T09:13:53.315Z,62.67
2022-11-18T09:16:14.126Z,63.28
2022-11-18T09:18:42.115Z,63.35
2022-11-18T09:21:10.736Z,63.85
2022-11-18T09:23:39.151Z,63.96
2022-11-18T09:26:08.572Z,64.25
2022-11-18T09:28:36.361Z,64.54
2022-11-18T09:31:05.059Z,64.83
2022-11-18T09:33:34.259Z,64.66
2022-11-18T09:36:03.023Z,64.50
2022-11-18T09:38:31.413Z,64.62
2022-11-18T09:41:06.413Z,65.25
2022-11-18T09:43:42.172Z,65.01
2022-11-18T09:46:23.315Z,64.59
2022-11-18T09:49:09.737Z,64.95
2022-11-18T09:51:41.687Z,64.50
2022-11-18T09:54:12.184Z,64.56
2022-11-18T09:56:40.913Z,64.23
2022-11-18T09:59:15.379Z,64.44
2022-11-18T10:01:43.626Z,64.57
2022-11-18T10:04:17.560Z,64.45
2022-11-18T10:06:46.302Z,64.47
2022-11-18T10:09:32.236Z,64.83
2022-11-18T10:12:16.039Z,65.05
2022-11-18T10:15:10.603Z,64.75
2022-11-18T10:17:47.263Z,64.46
2022-11-18T10:20:31.713Z,64.35
2022-11-18T10:23:04.502Z,64.00
2022-11-18T10:25:33.937Z,64.25
2022-11-18T10:28:15.210Z,64.11
2022-11-18T10:30:43.168Z,63.87
2022-11-18T10:33:25.891Z,64.39
2022-11-18T10:36:11.210Z,64.24
2022-11-18T10:38:38.808Z,63.72
2022-11-18T10:41:08.494Z,63.82
2022-11-18T10:43:50.834Z,64.07
2022-11-18T10:46:25.980Z,63.84
2022-11-18T10:49:16.429Z,63.29
2022-11-18T10:51:47.397Z,63.24
2022-11-18T10:54:16.906Z,63.47
2022-11-18T10:56:53.418Z,62.83
2022-11-18T10:59:31.715Z,62.73
2022-11-18T11:02:09.724Z,62.35
2022-11-18T11:04:38.125Z,62.16
2022-11-18T11:07:17.920Z,62.35
2022-11-18T11:09:46.199Z,62.69
2022-11-18T11:12:15.908Z,62.14
2022-11-18T11:14:50.724Z,62.86
2022-11-18T11:17:21.612Z,63.21
2022-11-18T11:19:53.131Z,62.95
2022-11-18T11:22:22.363Z,63.11
2022-11-18T11:24:50.642Z,63.52
2022-11-18T11:30:23.365Z,63.28
2022-11-18T11:33:19.484Z,63.05
2022-11-18T11:36:09.976Z,63.73
2022-11-18T11:38:53.232Z,64.18
2022-11-18T11:41:23.533Z,65.02
2022-11-18T11:44:14.754Z,65.24
2022-11-18T11:47:10.074Z,65.39
2022-11-18T11:49:50.821Z,65.79
2022-11-18T11:52:26.566Z,66.08
2022-11-18T11:55:00.200Z,66.15
2022-11-18T11:57:40.276Z,66.07
2022-11-18T12:00:13.169Z,66.28
2022-11-18T12:02:57.850Z,66.33
2022-11-18T12:05:28.255Z,66.41
2022-11-18T12:07:57.887Z,66.90
2022-11-18T12:10:31.697Z,66.77
2022-11-18T12:13:12.768Z,67.64
2022-11-18T12:15:46.142Z,67.77
2022-11-18T12:18:22.031Z,68.00
2022-11-18T12:20:50.937Z,68.44
2022-11-18T12:23:21.868Z,68.42
2022-11-18T12:26:02.929Z,69.00
2022-11-18T12:28:34.575Z,69.33
2022-11-18T12:31:27.697Z,69.11
2022-11-18T12:33:57.271Z,69.21
2022-11-18T12:36:28.719Z,69.12
2022-11-18T12:38:57.095Z,69.44
2022-11-18T12:42:18.822Z,69.51
2022-11-18T12:44:51.937Z,69.88
2022-11-18T12:48:13.363Z,69.71
2022-11-18T12:50:52.384Z,70.08
2022-11-18T12:53:37.041Z,70.44
2022-11-18T12:56:27.491Z,70.91
2022-11-18T12:58:56.821Z,70.82
2022-11-18T13:01:27.042Z,70.66
2022-11-18T13:04:07.570Z,70.62
2022-11-18T13:06:39.230Z,70.49
2022-11-18T13:09:15.983Z,70.54
2022-11-18T13:11:48.060Z,69.80
2022-11-18T13:14:35.410Z,69.61
2022-11-18T13:17:20.896Z,69.82
2022-11-18T13:19:58.216Z,69.82
2022-11-18T13:22:44.415Z,70.32
2022-11-18T13:25:26.342Z,69.56
2022-11-18T13:27:58.665Z,69.83
2022-11-18T13:30:27.377Z,69.57
2022-11-18T13:32:56.690Z,69.57
2022-11-18T13:35:27.566Z,69.69
2022-11-18T13:37:58.725Z,69.49
2022-11-18T13:40:31.293Z,69.39
2022-11-18T13:42:58.897Z,70.01
2022-11-18T13:45:28.552Z,69.91
2022-11-18T13:47:59.296Z,69.99
2022-11-18T13:50:28.821Z,69.63
2022-11-18T13:53:06.552Z,69.11
2022-11-18T13:55:38.149Z,69.04
2022-11-18T13:58:07.966Z,69.27
2022-11-18T14:00:36.925Z,68.92
2022-11-18T14:03:07.201Z,68.92
2022-11-18T14:05:34.827Z,68.74
2022-11-18T14:08:07.423Z,68.56
2022-11-18T14:10:43.834Z,68.46
2022-11-18T14:13:20.018Z,68.17
2022-11-18T14:15:47.609Z,68.79
2022-11-18T14:18:20.723Z,68.62
2022-11-18T14:20:52.011Z,68.51
2022-11-18T14:23:23.585Z,68.83
2022-11-18T14:25:51.270Z,68.81
2022-11-18T14:28:22.699Z,68.74
2022-11-18T14:31:02.669Z,68.74
2022-11-18T14:33:31.147Z,69.11
2022-11-18T14:36:00.839Z,69.23
2022-11-18T14:38:58.031Z,69.28
2022-11-18T14:41:50.068Z,68.91
2022-11-18T14:44:18.604Z,69.07
2022-11-18T14:46:48.411Z,69.14
2022-11-18T14:49:19.189Z,69.11
2022-11-18T14:51:47.319Z,68.89
2022-11-18T14:54:25.212Z,69.23
2022-11-18T14:56:55.877Z,69.51
2022-11-18T14:59:25.647Z,69.63
2022-11-18T15:01:53.376Z,69.48
2022-11-18T15:04:22.085Z,69.58
2022-11-18T15:06:49.987Z,69.90
2022-11-18T15:09:18.969Z,70.03
2022-11-18T15:11:46.594Z,69.69
2022-11-18T15:14:14.383Z,70.01
2022-11-18T15:16:42.077Z,69.64
2022-11-18T15:19:14.781Z,69.89
2022-11-18T15:21:42.653Z,69.57
2022-11-18T15:24:10.309Z,69.59
2022-11-18T15:26:41.336Z,68.93
2022-11-18T15:29:16.490Z,68.86
2022-11-18T15:31:44.778Z,68.81
2022-11-18T15:34:12.425Z,68.91
2022-11-18T15:36:41.857Z,68.82
2022-11-18T15:39:10.877Z,68.91
2022-11-18T15:41:41.063Z,68.60
2022-11-18T15:44:11.155Z,68.41
2022-11-18T15:46:38.803Z,68.63
2022-11-18T15:49:09.453Z,68.39
2022-11-18T15:51:38.247Z,68.27
2022-11-18T15:54:06.554Z,68.37
2022-11-18T15:56:34.395Z,68.31
2022-11-18T15:59:05.445Z,68.43
2022-11-18T16:01:34.774Z,68.28
2022-11-18T16:04:02.878Z,68.20
2022-11-18T16:06:31.039Z,67.76
2022-11-18T16:09:00.283Z,67.76
2022-11-18T16:11:46.612Z,67.76
2022-11-18T16:14:17.710Z,68.06
2022-11-18T16:16:47.326Z,68.11
2022-11-18T16:19:16.770Z,68.04
2022-11-18T16:21:47.116Z,67.64
2022-11-18T16:24:17.147Z,67.67
2022-11-18T16:26:45.085Z,67.61
2022-11-18T16:29:15.817Z,67.80
2022-11-18T16:31:46.903Z,67.74
2022-11-18T16:34:15.915Z,67.57
2022-11-18T16:36:45.230Z,67.66
2022-11-18T16:39:14.454Z,67.64
2022-11-18T16:41:42.970Z,67.74
2022-11-18T16:44:13.314Z,67.81
2022-11-18T16:46:42.381Z,67.97
2022-11-18T16:49:14.500Z,67.85
2022-11-18T16:51:43.591Z,67.87
2022-11-18T16:54:17.818Z,67.89
2022-11-18T16:56:45.801Z,67.85
2022-11-18T16:59:15.487Z,67.99
2022-11-18T17:01:43.610Z,67.93
2022-11-18T17:04:12.491Z,68.07
2022-11-18T17:06:41.748Z,68.00
2022-11-18T17:09:15.076Z,68.13
2022-11-18T17:11:42.988Z,68.36
2022-11-18T17:14:10.900Z,68.51
2022-11-18T17:16:38.783Z,68.44
2022-11-18T17:19:11.603Z,68.48
2022-11-18T17:21:41.502Z,68.57
2022-11-18T17:24:09.767Z,68.36
2022-11-18T17:26:37.372Z,68.41
2022-11-18T17:29:05.106Z,68.26
2022-11-18T17:31:32.913Z,68.27
2022-11-18T17:34:00.500Z,68.27
2022-11-18T17:36:29.595Z,68.33
2022-11-18T17:39:01.027Z,68.38
2022-11-18T17:41:47.759Z,68.34
2022-11-18T17:44:17.561Z,68.30
2022-11-18T17:46:47.395Z,68.20
2022-11-18T17:49:18.012Z,68.17
2022-11-18T17:51:47.679Z,68.12
2022-11-18T17:54:16.935Z,67.99
2022-11-18T17:56:44.756Z,68.30
2022-11-18T17:59:16.471Z,68.23
2022-11-18T18:01:44.709Z,68.00
2022-11-18T18:04:14.709Z,68.12
2022-11-18T18:06:42.977Z,68.13
2022-11-18T18:09:10.678Z,68.26
2022-11-18T18:11:39.777Z,68.14
2022-11-18T18:14:13.004Z,68.32
2022-11-18T18:16:42.480Z,68.29
2022-11-18T18:19:11.921Z,68.11
2022-11-18T18:21:39.790Z,68.28
2022-11-18T18:24:08.480Z,67.96
2022-11-18T18:26:36.332Z,68.40
2022-11-18T18:29:06.189Z,67.83
2022-11-18T18:31:35.517Z,68.24
2022-11-18T18:34:03.570Z,68.24
2022-11-18T18:36:31.808Z,67.92
2022-11-18T18:39:00.975Z,68.02
2022-11-18T18:41:28.895Z,67.88
2022-11-18T18:43:57.360Z,67.95
2022-11-18T18:46:30.919Z,68.20
2022-11-18T18:49:03.856Z,68.15
2022-11-18T18:51:33.934Z,67.94
2022-11-18T18:54:01.658Z,67.89
2022-11-18T18:56:29.451Z,67.87
2022-11-18T18:58:57.765Z,67.52
2022-11-18T19:01:27.700Z,67.84
2022-11-18T19:03:56.928Z,67.85
2022-11-18T19:06:53.309Z,67.78
2022-11-18T19:09:14.465Z,67.77
2022-11-18T19:11:56.392Z,67.55
2022-11-18T19:14:24.987Z,67.62
2022-11-18T19:16:54.258Z,67.80
2022-11-18T19:19:43.933Z,67.94
2022-11-18T19:22:13.368Z,68.19
2022-11-18T19:24:50.599Z,67.90
2022-11-18T19:27:18.601Z,68.43
2022-11-18T19:29:46.485Z,68.56
2022-11-18T19:32:16.033Z,68.61
2022-11-18T19:34:43.674Z,68.53
2022-11-18T19:37:13.939Z,68.65
2022-11-18T19:39:41.745Z,68.89
2022-11-18T19:42:10.806Z,68.92
2022-11-18T19:44:38.928Z,69.55
2022-11-18T19:47:08.597Z,69.22
2022-11-18T19:49:37.608Z,69.40
2022-11-18T19:52:05.240Z,69.25
2022-11-18T19:54:33.124Z,69.21
2022-11-18T19:57:00.917Z,69.55
2022-11-18T19:59:29.042Z,69.74
2022-11-18T20:01:56.704Z,69.63
2022-11-18T20:04:24.390Z,69.77
2022-11-18T20:06:53.887Z,70.35
2022-11-18T20:09:22.077Z,70.31
2022-11-18T20:11:49.914Z,70.42
2022-11-18T20:14:17.629Z,70.62
2022-11-18T20:16:45.242Z,70.33
2022-11-18T20:19:14.002Z,69.96
2022-11-18T20:21:43.959Z,70.17
2022-11-18T20:24:16.833Z,70.25
2022-11-18T20:26:45.047Z,70.33
2022-11-18T20:29:13.525Z,70.53
2022-11-18T20:31:41.514Z,70.31
2022-11-18T20:34:12.849Z,70.10
2022-11-18T20:36:40.518Z,70.06
2022-11-18T20:39:14.923Z,70.14
2022-11-18T20:41:42.747Z,69.92
2022-11-18T20:44:10.886Z,70.20
2022-11-18T20:46:38.490Z,69.93
2022-11-18T20:49:06.569Z,69.77
2022-11-18T20:51:34.187Z,69.70
2022-11-18T20:54:03.946Z,70.02
2022-11-18T20:56:32.923Z,70.31
2022-11-18T20:59:00.658Z,70.33
2022-11-18T21:01:29.895Z,70.19
2022-11-18T21:03:58.450Z,69.77
2022-11-18T21:06:27.936Z,69.91
2022-11-18T21:08:56.548Z,70.19
2022-11-18T21:11:24.551Z,69.93
2022-11-18T21:14:11.901Z,70.14
2022-11-18T21:16:40.555Z,70.29
2022-11-18T21:19:08.291Z,70.73
2022-11-18T21:21:49.300Z,70.73
2022-11-18T21:24:18.345Z,71.22
2022-11-18T21:26:46.829Z,71.64
2022-11-18T21:29:17.891Z,71.00
2022-11-18T21:31:46.877Z,70.91
2022-11-18T21:34:14.897Z,70.74
2022-11-18T21:36:47.021Z,70.71
2022-11-18T21:39:18.870Z,70.75
2022-11-18T21:41:53.613Z,70.73
2022-11-18T21:44:24.744Z,70.67
2022-11-18T21:46:52.475Z,70.57
2022-11-18T21:49:20.471Z,70.60
2022-11-18T21:51:48.291Z,70.54
2022-11-18T21:54:18.294Z,70.63
2022-11-18T21:56:46.170Z,70.36
2022-11-18T21:59:13.910Z,70.26
2022-11-18T22:01:43.091Z,70.06
2022-11-18T22:04:30.656Z,69.88
2022-11-18T22:06:58.685Z,69.82
2022-11-18T22:09:27.463Z,69.70
2022-11-18T22:11:57.890Z,69.29
2022-11-18T22:14:25.641Z,69.47
2022-11-18T22:16:54.676Z,69.35
2022-11-18T22:19:22.521Z,69.19
2022-11-18T22:21:51.258Z,69.44
2022-11-18T22:24:19.553Z,69.10
2022-11-18T22:26:47.156Z,68.91
2022-11-18T22:29:14.990Z,69.28
2022-11-18T22:31:42.887Z,69.22
2022-11-18T22:34:13.676Z,69.16
2022-11-18T22:36:41.388Z,69.23
2022-11-18T22:39:09.035Z,68.75
2022-11-18T22:41:54.893Z,68.69
2022-11-18T22:44:22.495Z,68.86
2022-11-18T22:46:50.162Z,68.32
2022-11-18T22:49:19.432Z,68.09
2022-11-18T22:51:47.283Z,67.71
2022-11-18T22:57:02.728Z,67.30
2022-11-18T22:59:30.376Z,67.35
2022-11-18T23:01:58.010Z,67.34
2022-11-18T23:04:27.014Z,67.19
2022-11-18T23:06:54.730Z,67.27
2022-11-18T23:09:22.526Z,67.06
2022-11-18T23:12:08.036Z,67.28
2022-11-18T23:14:35.608Z,66.87
2022-11-18T23:17:03.340Z,67.08
2022-11-18T23:19:32.342Z,67.16
2022-11-18T23:21:59.956Z,66.91
2022-11-18T23:24:27.583Z,66.59
2022-11-18T23:26:57.305Z,66.06
2022-11-18T23:29:24.959Z,65.99
2022-11-18T23:31:53.768Z,66.00
2022-11-18T23:34:21.404Z,65.93
2022-11-18T23:36:50.989Z,65.81
2022-11-18T23:39:18.830Z,65.50
2022-11-18T23:41:47.108Z,65.44
2022-11-18T23:44:14.683Z,65.68
2022-11-18T23:46:42.318Z,65.37
2022-11-18T23:49:10.367Z,65.58
2022-11-18T23:51:38.047Z,65.36
2022-11-18T23:54:07.249Z,65.70
2022-11-18T23:56:37.951Z,65.65
2022-11-18T23:59:06.635Z,66.05
